Time;durP1;ratioP1;P1;durP2;ratioP2;P2;SDS_P1;SDS_P2;PMS_P1;PMS_P2;Temp;Humidity;BMP_temperature;BMP_pressure;BME280_temperature;BME280_humidity;BME280_pressure;Samples;Min_cycle;Max_cycle;Signal;HPM_P1;HPM_P2
2020/12/31 00:02:15;;;;;;;24.83;21.55;;;19.70;34.80;;;;;;5067831;28;20031;-46
2020/12/31 00:04:41;;;;;;;23.63;19.95;;;19.70;34.80;;;;;;5060964;28;20039;-46
2020/12/31 00:07:08;;;;;;;24.58;20.60;;;19.70;34.70;;;;;;5059672;28;20092;-46
2020/12/31 00:09:36;;;;;;;24.70;20.63;;;19.70;34.70;;;;;;5069953;28;20071;-47
2020/12/31 00:12:04;;;;;;;24.05;19.08;;;19.70;34.80;;;;;;5067094;28;20029;-46
2020/12/31 00:14:30;;;;;;;20.50;17.83;;;19.70;34.70;;;;;;5058737;28;20107;-46
2020/12/31 00:16:56;;;;;;;21.15;17.80;;;19.70;34.70;;;;;;5062904;28;20024;-46
2020/12/31 00:19:22;;;;;;;23.17;18.85;;;19.60;34.60;;;;;;5059750;28;20095;-46
2020/12/31 00:21:48;;;;;;;24.70;19.75;;;19.60;34.70;;;;;;5066911;28;20086;-46
2020/12/31 00:24:14;;;;;;;21.40;17.58;;;19.60;34.80;;;;;;5064674;28;20021;-46
2020/12/31 00:26:40;;;;;;;20.88;17.88;;;19.60;34.80;;;;;;5062921;28;20025;-47
2020/12/31 00:29:06;;;;;;;23.25;18.27;;;19.60;34.90;;;;;;5061768;28;20352;-47
2020/12/31 00:31:32;;;;;;;22.23;17.63;;;19.60;34.90;;;;;;5066958;28;20081;-47
2020/12/31 00:33:59;;;;;;;23.00;18.38;;;19.50;34.90;;;;;;5069947;28;20036;-47
2020/12/31 00:36:26;;;;;;;20.67;17.40;;;19.50;35.00;;;;;;5066398;28;20025;-47
2020/12/31 00:38:53;;;;;;;19.98;16.77;;;19.50;35.00;;;;;;5064686;28;20033;-47
2020/12/31 00:41:23;;;;;;;21.80;15.80;;;19.50;35.00;;;;;;5067074;28;20039;-47
2020/12/31 00:43:49;;;;;;;20.13;17.27;;;19.50;35.00;;;;;;5066679;28;20189;-47
2020/12/31 00:46:16;;;;;;;18.55;15.88;;;19.50;35.00;;;;;;5060481;28;20270;-47
2020/12/31 00:48:42;;;;;;;18.30;14.73;;;19.50;35.00;;;;;;5065299;28;20082;-47
2020/12/31 00:51:09;;;;;;;17.15;14.35;;;19.40;34.90;;;;;;5093841;28;20035;-47
2020/12/31 00:53:35;;;;;;;18.55;15.60;;;19.40;34.90;;;;;;5059301;28;20028;-47
2020/12/31 00:56:03;;;;;;;17.85;13.85;;;19.40;35.00;;;;;;5057654;28;20596;-47
2020/12/31 00:58:30;;;;;;;17.20;15.05;;;19.40;35.00;;;;;;5098198;28;20029;-47
2020/12/31 01:00:58;;;;;;;16.33;14.02;;;19.40;35.10;;;;;;5060703;28;20033;-47
2020/12/31 01:03:24;;;;;;;18.52;14.65;;;19.40;35.10;;;;;;5058273;28;20479;-47
2020/12/31 01:05:50;;;;;;;15.27;12.55;;;19.40;35.10;;;;;;5066524;28;20024;-47
2020/12/31 01:08:16;;;;;;;17.13;13.98;;;19.40;35.10;;;;;;5060971;28;20028;-47
2020/12/31 01:10:44;;;;;;;17.95;13.05;;;19.40;35.20;;;;;;5059861;28;20052;-47
2020/12/31 01:13:10;;;;;;;14.85;12.73;;;19.30;35.10;;;;;;5056826;28;20028;-47
2020/12/31 01:15:36;;;;;;;16.33;13.00;;;19.40;35.20;;;;;;5067696;28;20048;-47
2020/12/31 01:18:03;;;;;;;13.38;11.65;;;19.30;35.20;;;;;;5058074;28;20033;-47
2020/12/31 01:20:29;;;;;;;13.63;11.60;;;19.40;35.10;;;;;;5058375;28;20033;-47
2020/12/31 01:22:55;;;;;;;13.38;11.98;;;19.30;35.10;;;;;;5059581;28;20036;-47
2020/12/31 01:25:21;;;;;;;14.45;11.70;;;19.30;35.10;;;;;;5065400;28;20123;-47
2020/12/31 01:27:47;;;;;;;13.07;11.50;;;19.30;35.10;;;;;;5065083;28;20032;-47
2020/12/31 01:30:13;;;;;;;13.10;11.18;;;19.30;35.20;;;;;;5056006;28;20078;-47
2020/12/31 01:32:39;;;;;;;11.15;9.63;;;19.30;35.20;;;;;;5060340;28;20116;-46
2020/12/31 01:35:05;;;;;;;13.35;10.40;;;19.30;35.20;;;;;;5063512;28;20044;-46
2020/12/31 01:37:31;;;;;;;14.27;10.60;;;19.30;35.20;;;;;;5068895;28;20394;-46
2020/12/31 01:39:57;;;;;;;13.27;11.35;;;19.20;35.20;;;;;;5063134;28;20073;-46
2020/12/31 01:42:23;;;;;;;11.07;9.80;;;19.20;35.30;;;;;;5064914;28;20051;-46
2020/12/31 01:44:49;;;;;;;11.93;9.52;;;19.30;35.30;;;;;;5061391;28;20041;-46
2020/12/31 01:47:16;;;;;;;11.95;9.50;;;19.20;35.20;;;;;;5058475;28;20024;-46
2020/12/31 01:49:43;;;;;;;10.43;9.25;;;19.20;35.30;;;;;;5064052;28;20063;-45
2020/12/31 01:52:12;;;;;;;9.82;8.10;;;19.20;35.30;;;;;;5059505;28;20530;-46
2020/12/31 01:54:38;;;;;;;11.95;8.95;;;19.20;35.30;;;;;;5060991;28;20115;-46
2020/12/31 01:57:04;;;;;;;10.88;8.60;;;19.20;35.30;;;;;;5058586;28;20017;-46
2020/12/31 01:59:30;;;;;;;10.63;9.32;;;19.20;35.30;;;;;;5061387;28;20071;-46
2020/12/31 02:01:56;;;;;;;12.18;9.73;;;19.20;35.30;;;;;;5062107;28;20028;-46
2020/12/31 02:04:22;;;;;;;10.30;8.10;;;19.20;35.30;;;;;;5055807;28;20025;-47
2020/12/31 02:06:51;;;;;;;9.75;8.10;;;19.10;35.30;;;;;;5064844;28;20431;-46
2020/12/31 02:09:17;;;;;;;10.07;7.97;;;19.20;35.30;;;;;;5059756;28;20029;-47
2020/12/31 02:11:43;;;;;;;10.45;7.75;;;19.10;35.30;;;;;;5060777;28;20470;-47
2020/12/31 02:14:09;;;;;;;10.63;8.32;;;19.10;35.30;;;;;;5054539;28;20064;-47
2020/12/31 02:16:39;;;;;;;8.10;6.70;;;19.10;35.30;;;;;;5062296;28;20448;-47
2020/12/31 02:19:16;;;;;;;8.70;7.45;;;19.10;35.30;;;;;;5053206;28;20086;-47
2020/12/31 02:21:49;;;;;;;9.77;7.50;;;19.10;35.30;;;;;;5060637;28;20633;-47
2020/12/31 02:24:16;;;;;;;9.65;7.25;;;19.10;35.50;;;;;;5059401;28;20024;-46
2020/12/31 02:26:44;;;;;;;9.90;7.55;;;19.10;35.30;;;;;;5065543;28;20525;-46
2020/12/31 02:29:12;;;;;;;10.40;7.28;;;19.10;35.40;;;;;;5055749;28;20039;-46
2020/12/31 02:31:39;;;;;;;10.07;7.78;;;19.10;35.50;;;;;;5067486;28;20036;-46
2020/12/31 02:34:06;;;;;;;9.32;7.10;;;19.10;35.50;;;;;;5066400;28;20033;-46
2020/12/31 02:36:34;;;;;;;9.27;6.70;;;19.10;35.50;;;;;;5061247;28;20559;-46
2020/12/31 02:39:06;;;;;;;8.85;6.78;;;19.10;35.50;;;;;;5064078;28;20378;-46
2020/12/31 02:41:32;;;;;;;8.00;6.53;;;19.10;35.50;;;;;;5067913;28;20104;-46
2020/12/31 02:43:58;;;;;;;8.45;7.18;;;19.00;35.40;;;;;;5065905;28;20074;-46
2020/12/31 02:46:25;;;;;;;7.57;6.53;;;19.00;35.40;;;;;;5069158;28;20024;-46
2020/12/31 02:48:51;;;;;;;7.68;6.22;;;19.00;35.50;;;;;;5070394;28;20085;-46
2020/12/31 02:51:18;;;;;;;8.07;6.07;;;19.00;35.50;;;;;;5066476;28;20027;-46
2020/12/31 02:53:44;;;;;;;7.97;6.47;;;19.00;35.50;;;;;;5065105;28;20071;-46
2020/12/31 02:56:12;;;;;;;9.98;6.55;;;19.00;35.50;;;;;;5065240;28;20032;-46
2020/12/31 02:58:39;;;;;;;7.82;6.40;;;19.00;35.60;;;;;;5069031;28;20032;-46
2020/12/31 03:01:07;;;;;;;8.02;6.30;;;19.00;36.20;;;;;;5063250;28;20074;-46
2020/12/31 03:03:34;;;;;;;8.13;6.00;;;19.00;35.60;;;;;;5073043;28;20028;-46
2020/12/31 03:06:00;;;;;;;7.30;6.10;;;19.00;35.60;;;;;;5056040;28;20017;-46
2020/12/31 03:08:26;;;;;;;7.45;6.65;;;19.00;35.60;;;;;;5062801;28;20112;-46
2020/12/31 03:10:54;;;;;;;7.18;5.95;;;19.00;35.60;;;;;;5064346;28;20141;-47
2020/12/31 03:13:23;;;;;;;7.82;6.20;;;19.00;35.70;;;;;;5067564;28;20021;-47
2020/12/31 03:15:53;;;;;;;8.45;6.40;;;18.90;35.70;;;;;;5067681;28;20021;-47
2020/12/31 03:18:20;;;;;;;6.82;5.65;;;19.00;35.80;;;;;;5061602;28;20025;-47
2020/12/31 03:20:49;;;;;;;8.32;5.90;;;19.00;35.80;;;;;;5062613;28;20457;-47
2020/12/31 03:23:17;;;;;;;8.30;5.70;;;18.90;35.80;;;;;;5065707;28;20032;-47
2020/12/31 03:25:43;;;;;;;6.70;5.55;;;18.90;35.80;;;;;;5070392;28;20386;-46
2020/12/31 03:28:10;;;;;;;6.85;5.60;;;18.90;35.80;;;;;;5067240;28;20059;-47
2020/12/31 03:30:36;;;;;;;6.05;5.38;;;18.90;35.80;;;;;;5073415;28;20036;-47
2020/12/31 03:33:04;;;;;;;6.55;5.85;;;18.90;35.70;;;;;;5067711;28;20385;-47
2020/12/31 03:35:31;;;;;;;6.57;5.80;;;18.90;35.80;;;;;;5059126;28;20106;-47
2020/12/31 03:37:57;;;;;;;6.10;4.72;;;18.90;35.80;;;;;;5063284;28;20071;-47
2020/12/31 03:40:23;;;;;;;7.65;5.47;;;18.90;35.80;;;;;;5074582;28;20358;-47
2020/12/31 03:42:49;;;;;;;7.25;5.55;;;18.90;35.80;;;;;;5060636;28;20491;-47
2020/12/31 03:45:15;;;;;;;8.45;5.38;;;18.90;35.90;;;;;;5063181;28;20032;-46
2020/12/31 03:47:41;;;;;;;6.88;4.93;;;18.90;35.80;;;;;;5062476;28;20021;-47
2020/12/31 03:50:07;;;;;;;6.10;5.35;;;18.90;35.80;;;;;;5067791;28;20027;-47
2020/12/31 03:52:33;;;;;;;5.55;4.68;;;18.80;35.90;;;;;;5066436;28;20069;-46
2020/12/31 03:55:00;;;;;;;5.78;5.03;;;18.80;35.90;;;;;;5063858;28;20399;-47
2020/12/31 03:57:25;;;;;;;6.07;5.30;;;18.80;35.90;;;;;;5059713;28;20045;-46
2020/12/31 03:59:51;;;;;;;6.38;5.25;;;18.80;35.90;;;;;;5072316;28;20114;-47
2020/12/31 04:02:17;;;;;;;7.53;5.40;;;18.80;35.90;;;;;;5069224;28;20074;-47
2020/12/31 04:04:44;;;;;;;6.50;5.03;;;18.80;35.90;;;;;;5066930;28;20025;-47
2020/12/31 04:07:10;;;;;;;5.57;4.40;;;18.80;35.90;;;;;;5063372;28;20032;-47
2020/12/31 04:09:36;;;;;;;5.80;4.70;;;18.80;36.00;;;;;;5066792;28;20037;-47
2020/12/31 04:12:02;;;;;;;5.82;4.07;;;18.80;36.00;;;;;;5063313;28;20021;-49
2020/12/31 04:14:28;;;;;;;6.03;4.60;;;18.80;36.00;;;;;;5069688;28;20414;-47
2020/12/31 04:16:54;;;;;;;8.30;4.90;;;18.80;36.00;;;;;;5063161;28;20041;-47
2020/12/31 04:19:20;;;;;;;5.32;4.65;;;18.80;36.10;;;;;;5063113;28;20466;-47
2020/12/31 04:21:47;;;;;;;6.15;4.40;;;18.70;36.00;;;;;;5060914;28;20033;-48
2020/12/31 04:24:13;;;;;;;5.70;4.50;;;18.70;36.00;;;;;;5067721;28;20028;-46
2020/12/31 04:26:39;;;;;;;6.22;4.47;;;18.80;36.10;;;;;;5064216;28;20821;-46
2020/12/31 04:29:05;;;;;;;5.80;3.95;;;18.80;36.00;;;;;;5070067;28;20108;-47
2020/12/31 04:31:31;;;;;;;5.47;4.93;;;18.80;36.10;;;;;;5064971;28;20017;-47
2020/12/31 04:33:57;;;;;;;4.78;4.15;;;18.70;36.10;;;;;;5062364;28;20070;-47
2020/12/31 04:36:23;;;;;;;5.05;3.95;;;18.70;36.10;;;;;;5062173;28;20060;-47
2020/12/31 04:38:49;;;;;;;7.75;4.72;;;18.70;36.20;;;;;;5065103;28;20032;-47
2020/12/31 04:41:15;;;;;;;6.68;4.43;;;18.60;36.10;;;;;;5065836;28;20033;-47
2020/12/31 04:43:42;;;;;;;5.20;4.22;;;18.70;36.10;;;;;;5055272;28;20406;-47
2020/12/31 04:46:12;;;;;;;5.32;4.43;;;18.70;36.20;;;;;;5058658;28;20029;-47
2020/12/31 04:48:40;;;;;;;7.35;4.07;;;18.70;36.20;;;;;;5066517;28;20098;-47
2020/12/31 04:51:08;;;;;;;4.70;3.78;;;18.70;36.20;;;;;;5062801;28;20029;-47
2020/12/31 04:53:34;;;;;;;4.50;3.83;;;18.60;36.10;;;;;;5062499;28;20028;-47
2020/12/31 04:56:04;;;;;;;6.07;4.40;;;18.60;36.10;;;;;;5059431;28;20445;-47
2020/12/31 04:58:30;;;;;;;6.00;4.00;;;18.60;36.20;;;;;;5066291;28;20031;-47
2020/12/31 05:00:57;;;;;;;5.50;3.97;;;18.60;36.20;;;;;;5060949;28;20039;-47
2020/12/31 05:03:23;;;;;;;9.80;4.28;;;18.60;36.10;;;;;;5060953;28;20137;-47
2020/12/31 05:06:00;;;;;;;5.93;3.80;;;18.60;36.20;;;;;;5065405;28;20028;-47
2020/12/31 05:08:30;;;;;;;5.07;4.28;;;18.60;36.10;;;;;;5060825;28;20028;-47
2020/12/31 05:11:00;;;;;;;6.13;3.78;;;18.60;36.20;;;;;;5061078;28;20518;-47
2020/12/31 05:13:27;;;;;;;4.53;3.83;;;18.60;36.10;;;;;;5056886;28;20482;-47
2020/12/31 05:15:53;;;;;;;5.60;4.00;;;18.60;36.20;;;;;;5066409;28;20033;-47
2020/12/31 05:18:23;;;;;;;5.90;4.22;;;18.60;36.30;;;;;;5060229;28;20036;-47
2020/12/31 05:20:51;;;;;;;5.73;3.40;;;18.50;36.30;;;;;;5059508;28;20443;-47
2020/12/31 05:23:19;;;;;;;4.00;3.60;;;18.50;36.30;;;;;;5066954;28;20296;-47
2020/12/31 05:25:46;;;;;;;4.15;3.42;;;18.50;36.30;;;;;;5063482;28;20025;-46
2020/12/31 05:28:26;;;;;;;5.05;4.05;;;18.50;36.20;;;;;;5057662;28;20032;-46
2020/12/31 05:30:57;;;;;;;4.05;3.50;;;18.50;36.30;;;;;;5069616;28;20099;-47
2020/12/31 05:33:35;;;;;;;3.78;3.15;;;18.50;36.30;;;;;;5064717;28;20029;-47
2020/12/31 05:36:25;;;;;;;6.47;3.58;;;18.50;36.40;;;;;;5057908;28;20368;-47
2020/12/31 05:38:57;;;;;;;4.43;3.23;;;18.50;36.30;;;;;;5064361;28;20033;-49
2020/12/31 05:41:34;;;;;;;3.78;3.13;;;18.50;36.40;;;;;;5069803;28;20033;-49
2020/12/31 05:44:06;;;;;;;4.38;3.75;;;18.50;36.30;;;;;;5056920;28;20722;-50
2020/12/31 05:46:34;;;;;;;14.48;3.72;;;18.50;36.40;;;;;;5059449;28;20021;-49
2020/12/31 05:49:02;;;;;;;5.53;3.25;;;18.50;36.50;;;;;;5064075;28;20039;-49
2020/12/31 05:51:33;;;;;;;5.38;3.60;;;18.50;36.40;;;;;;5070290;28;20033;-49
2020/12/31 05:54:14;;;;;;;4.35;3.03;;;18.50;36.50;;;;;;5061352;28;20031;-49
2020/12/31 05:56:45;;;;;;;4.30;3.10;;;18.40;36.40;;;;;;5055961;28;20028;-49
2020/12/31 05:59:25;;;;;;;6.28;3.38;;;18.50;36.40;;;;;;5069589;28;20075;-49
2020/12/31 06:01:58;;;;;;;6.25;2.97;;;18.40;36.30;;;;;;5067719;28;20033;-49
2020/12/31 06:04:30;;;;;;;6.38;3.38;;;18.40;36.80;;;;;;5059644;28;20024;-49
2020/12/31 06:07:01;;;;;;;4.78;3.25;;;18.40;36.30;;;;;;5061386;28;20552;-49
2020/12/31 06:09:29;;;;;;;3.65;3.13;;;18.40;36.30;;;;;;5058702;28;20057;-49
2020/12/31 06:12:05;;;;;;;4.53;3.42;;;18.40;36.40;;;;;;5060689;28;20017;-49
2020/12/31 06:14:33;;;;;;;3.25;2.88;;;18.40;37.00;;;;;;5060047;28;20416;-49
2020/12/31 06:17:06;;;;;;;5.30;3.42;;;18.40;36.30;;;;;;5066277;28;20040;-49
2020/12/31 06:19:38;;;;;;;4.97;3.35;;;18.40;36.30;;;;;;5064885;28;20082;-49
2020/12/31 06:22:09;;;;;;;4.45;3.05;;;18.40;36.50;;;;;;5064196;28;20109;-49
2020/12/31 06:24:38;;;;;;;;;;;18.40;36.40;;;;;;5076310;28;20378;-49
2020/12/31 06:27:15;;;;;;;3.83;2.80;;;18.30;36.30;;;;;;5069993;28;19912;-49
2020/12/31 06:29:41;;;;;;;3.58;3.28;;;18.40;36.20;;;;;;5070551;28;20029;-49
2020/12/31 06:32:27;;;;;;;5.97;3.10;;;18.40;36.20;;;;;;5065060;28;20402;-50
2020/12/31 06:35:05;;;;;;;3.58;2.70;;;18.30;36.30;;;;;;5061146;28;20367;-49
2020/12/31 06:37:32;;;;;;;3.47;2.55;;;18.30;36.40;;;;;;5061415;28;20371;-49
2020/12/31 06:40:29;;;;;;;5.72;2.88;;;18.30;36.40;;;;;;5067181;28;20171;-49
2020/12/31 06:43:10;;;;;;;4.72;3.15;;;18.30;36.50;;;;;;5073175;28;20427;-50
2020/12/31 06:45:39;;;;;;;3.97;2.92;;;18.30;36.40;;;;;;5066113;28;20032;-50
2020/12/31 06:48:25;;;;;;;3.88;2.55;;;18.30;36.30;;;;;;5058651;28;20060;-50
2020/12/31 06:50:59;;;;;;;8.38;2.60;;;18.20;36.30;;;;;;5067039;28;20028;-47
2020/12/31 06:53:29;;;;;;;2.88;2.17;;;18.20;36.50;;;;;;5073691;28;20127;-48
2020/12/31 06:55:55;;;;;;;4.63;2.87;;;18.20;36.40;;;;;;5066115;28;20025;-50
2020/12/31 06:58:22;;;;;;;4.60;2.83;;;18.20;36.40;;;;;;5062702;28;20265;-50
2020/12/31 07:00:49;;;;;;;3.53;2.75;;;18.20;36.40;;;;;;5065625;28;20116;-50
2020/12/31 07:03:15;;;;;;;4.35;2.50;;;18.20;36.50;;;;;;5070029;28;20082;-50
2020/12/31 07:05:41;;;;;;;3.92;2.60;;;18.20;36.50;;;;;;5063308;28;20040;-50
2020/12/31 07:08:07;;;;;;;5.43;2.90;;;18.20;36.50;;;;;;5064920;28;20112;-50
2020/12/31 07:10:46;;;;;;;6.13;3.10;;;18.20;36.60;;;;;;5066519;28;20043;-50
2020/12/31 07:13:30;;;;;;;3.55;2.78;;;18.20;36.40;;;;;;5066642;28;20036;-50
2020/12/31 07:15:57;;;;;;;5.28;3.15;;;18.20;36.50;;;;;;5069733;28;20099;-50
2020/12/31 07:18:23;;;;;;;4.10;2.67;;;18.20;36.60;;;;;;5058219;28;20040;-50
2020/12/31 07:20:54;;;;;;;3.67;2.67;;;18.20;36.60;;;;;;5067274;28;20028;-49
2020/12/31 07:23:20;;;;;;;4.35;2.80;;;18.20;36.60;;;;;;5071226;28;20056;-50
2020/12/31 07:25:46;;;;;;;4.40;3.13;;;18.20;36.60;;;;;;5068252;28;20075;-50
2020/12/31 07:28:16;;;;;;;3.80;3.20;;;18.20;36.60;;;;;;5067750;28;20029;-50
2020/12/31 07:30:52;;;;;;;4.78;3.60;;;18.20;36.70;;;;;;5067374;28;20470;-50
2020/12/31 07:33:35;;;;;;;7.28;5.85;;;18.20;36.50;;;;;;5065808;28;20478;-50
2020/12/31 07:36:12;;;;;;;6.22;5.32;;;18.20;36.60;;;;;;5055885;28;20631;-50
2020/12/31 07:38:39;;;;;;;7.60;4.80;;;18.20;36.60;;;;;;5064687;28;20066;-50
2020/12/31 07:41:11;;;;;;;7.28;4.75;;;18.20;36.50;;;;;;5065652;28;20107;-50
2020/12/31 07:43:37;;;;;;;7.68;5.28;;;18.20;36.50;;;;;;5058436;28;20093;-50
2020/12/31 07:46:05;;;;;;;7.53;5.55;;;18.20;36.50;;;;;;5060111;28;20024;-50
2020/12/31 07:48:32;;;;;;;9.18;6.57;;;18.20;36.60;;;;;;5063770;28;20108;-50
2020/12/31 07:51:00;;;;;;;6.28;4.80;;;18.10;36.50;;;;;;5063834;28;20064;-49
2020/12/31 07:53:26;;;;;;;6.63;4.68;;;18.20;36.50;;;;;;5064056;28;20083;-50
2020/12/31 07:55:53;;;;;;;11.25;5.80;;;18.10;36.50;;;;;;5065033;28;20037;-49
2020/12/31 07:58:24;;;;;;;10.80;5.45;;;18.10;36.60;;;;;;5067624;28;20035;-50
2020/12/31 08:01:00;;;;;;;7.00;6.05;;;18.10;36.60;;;;;;5061875;28;20037;-47
2020/12/31 08:03:26;;;;;;;9.02;6.25;;;18.10;36.60;;;;;;5065973;28;20028;-47
2020/12/31 08:05:59;;;;;;;9.02;5.57;;;18.10;36.60;;;;;;5059216;28;20021;-47
2020/12/31 08:08:26;;;;;;;8.38;7.13;;;18.10;36.80;;;;;;5060538;28;20020;-47
2020/12/31 08:10:52;;;;;;;17.40;13.82;;;18.10;36.80;;;;;;5063718;28;20028;-47
2020/12/31 08:13:19;;;;;;;24.10;18.48;;;18.10;36.80;;;;;;5059748;28;20066;-47
2020/12/31 08:15:52;;;;;;;28.20;21.88;;;18.10;36.90;;;;;;5072654;28;20494;-46
2020/12/31 08:18:18;;;;;;;32.10;23.33;;;18.10;37.00;;;;;;5065520;28;20060;-50
2020/12/31 08:20:47;;;;;;;40.42;30.65;;;18.10;37.00;;;;;;5063857;28;20029;-50
2020/12/31 08:23:25;;;;;;;38.42;30.77;;;18.10;37.20;;;;;;5066691;28;20025;-50
2020/12/31 08:25:54;;;;;;;45.20;35.38;;;18.10;37.20;;;;;;5072669;28;20052;-50
2020/12/31 08:28:21;;;;;;;35.50;30.40;;;18.20;37.20;;;;;;5067703;28;20025;-50
2020/12/31 08:30:48;;;;;;;39.42;31.58;;;18.20;37.20;;;;;;5067417;28;20078;-50
2020/12/31 08:33:25;;;;;;;39.03;30.17;;;18.20;37.20;;;;;;5069292;28;20059;-48
2020/12/31 08:35:52;;;;;;;35.75;29.42;;;18.10;37.70;;;;;;5055917;28;20041;-50
2020/12/31 08:38:20;;;;;;;39.35;32.08;;;18.20;37.20;;;;;;5064112;28;20040;-50
2020/12/31 08:40:52;;;;;;;39.20;31.10;;;18.20;37.30;;;;;;5065304;28;20040;-52
2020/12/31 08:43:21;;;;;;;39.70;29.63;;;18.20;37.40;;;;;;5062448;28;20056;-59
2020/12/31 08:45:51;;;;;;;38.17;29.83;;;18.10;37.40;;;;;;5053002;28;20028;-64
2020/12/31 08:48:29;;;;;;;39.00;30.00;;;18.00;37.60;;;;;;5067043;28;20021;-63
2020/12/31 08:51:09;;;;;;;56.67;29.02;;;18.00;37.90;;;;;;5059161;28;20031;-63
2020/12/31 08:53:52;;;;;;;35.20;26.77;;;17.90;38.00;;;;;;5052081;28;20024;-63
2020/12/31 08:56:20;;;;;;;30.52;23.70;;;17.90;38.10;;;;;;5059705;28;20108;-63
2020/12/31 08:58:46;;;;;;;28.63;23.40;;;17.90;38.10;;;;;;5069302;28;20051;-64
2020/12/31 09:01:27;;;;;;;23.00;17.15;;;17.90;37.90;;;;;;5056636;28;20032;-64
2020/12/31 09:04:14;;;;;;;20.77;14.80;;;17.90;37.70;;;;;;5065346;28;20429;-64
2020/12/31 09:06:44;;;;;;;20.23;13.13;;;17.90;37.80;;;;;;5058259;28;20281;-59
2020/12/31 09:09:17;;;;;;;17.88;12.60;;;17.90;37.90;;;;;;5057318;28;20021;-58
2020/12/31 09:11:55;;;;;;;17.10;12.57;;;17.90;37.90;;;;;;5065352;28;20024;-61
2020/12/31 09:14:21;;;;;;;16.83;11.70;;;17.90;38.20;;;;;;5055609;28;20114;-60
2020/12/31 09:16:47;;;;;;;16.52;11.80;;;17.90;38.10;;;;;;5060368;28;20039;-59
2020/12/31 09:19:13;;;;;;;14.48;11.02;;;18.00;38.80;;;;;;5059915;28;20035;-57
2020/12/31 09:21:39;;;;;;;16.95;10.77;;;18.00;38.20;;;;;;5064371;28;20045;-58
2020/12/31 09:24:16;;;;;;;18.75;10.60;;;18.10;38.40;;;;;;5033600;28;20036;-64
2020/12/31 09:26:55;;;;;;;17.77;10.60;;;18.20;38.50;;;;;;5052989;28;20111;-66
2020/12/31 09:29:22;;;;;;;15.07;10.73;;;18.20;38.40;;;;;;5058498;28;20020;-61
2020/12/31 09:31:48;;;;;;;18.67;10.10;;;18.30;38.40;;;;;;5066761;28;20024;-63
2020/12/31 09:34:15;;;;;;;12.35;9.30;;;18.40;38.30;;;;;;5063169;28;20031;-63
2020/12/31 09:36:41;;;;;;;13.35;9.57;;;18.50;38.20;;;;;;5052534;28;20025;-63
2020/12/31 09:39:07;;;;;;;12.63;9.40;;;18.60;38.20;;;;;;5058973;28;20031;-63
2020/12/31 09:41:34;;;;;;;13.70;8.52;;;18.60;37.90;;;;;;5059925;28;20041;-64
2020/12/31 09:44:00;;;;;;;9.30;7.68;;;18.70;37.90;;;;;;5066633;28;20035;-63
2020/12/31 09:46:26;;;;;;;12.55;8.68;;;18.70;37.70;;;;;;5063427;28;20017;-63
2020/12/31 09:48:52;;;;;;;13.15;8.27;;;18.80;37.70;;;;;;5060828;28;20435;-64
2020/12/31 09:51:19;;;;;;;11.55;8.13;;;18.80;37.60;;;;;;5067357;28;20035;-64
2020/12/31 09:53:46;;;;;;;9.88;6.82;;;18.90;37.40;;;;;;5059407;28;20490;-56
2020/12/31 09:56:12;;;;;;;9.63;6.47;;;18.90;37.00;;;;;;5062640;28;20028;-56
2020/12/31 09:58:42;;;;;;;10.23;6.13;;;19.00;36.80;;;;;;5043547;28;20032;-56
2020/12/31 10:01:09;;;;;;;9.35;6.15;;;19.00;36.70;;;;;;5060976;28;20021;-56
2020/12/31 10:03:36;;;;;;;11.52;6.78;;;19.10;37.40;;;;;;5064231;28;20465;-57
2020/12/31 10:06:06;;;;;;;8.68;5.72;;;19.10;36.70;;;;;;5069511;28;20155;-58
2020/12/31 10:08:32;;;;;;;9.10;5.65;;;19.20;36.60;;;;;;5056015;28;20513;-58
2020/12/31 10:11:00;;;;;;;8.38;5.50;;;19.20;36.50;;;;;;5069083;28;20413;-57
2020/12/31 10:13:26;;;;;;;9.93;5.32;;;19.20;36.20;;;;;;5065579;28;20028;-57
2020/12/31 10:15:52;;;;;;;9.32;5.50;;;19.20;36.30;;;;;;5070488;28;20140;-57
2020/12/31 10:18:18;;;;;;;9.30;5.28;;;19.30;36.40;;;;;;5061234;28;20035;-57
2020/12/31 10:20:45;;;;;;;12.23;7.38;;;19.40;36.50;;;;;;5066544;28;20025;-58
2020/12/31 10:23:11;;;;;;;16.98;6.55;;;19.40;36.80;;;;;;5063709;28;20032;-57
2020/12/31 10:37:56;;;;;;;12.10;6.93;;;19.90;36.90;;;;;;5063300;28;20406;-61
2020/12/31 10:40:22;;;;;;;11.07;6.05;;;19.20;38.90;;;;;;5056080;28;20101;-60
2020/12/31 10:42:48;;;;;;;18.58;6.20;;;19.40;38.50;;;;;;5073001;28;20112;-60
2020/12/31 10:45:14;;;;;;;10.63;6.60;;;19.60;38.40;;;;;;5046698;28;20036;-60
2020/12/31 10:47:40;;;;;;;15.05;6.50;;;19.80;38.30;;;;;;5065777;28;20024;-60
2020/12/31 10:50:06;;;;;;;13.13;6.50;;;20.00;38.40;;;;;;5042967;28;20029;-60
2020/12/31 10:52:32;;;;;;;12.52;6.28;;;20.10;38.30;;;;;;5062743;28;20047;-61
2020/12/31 10:54:59;;;;;;;9.57;5.00;;;20.20;38.30;;;;;;5068108;28;20043;-60
2020/12/31 10:57:25;;;;;;;10.40;3.72;;;20.30;37.90;;;;;;5049561;28;20021;-56
2020/12/31 10:59:52;;;;;;;8.15;4.90;;;20.50;37.30;;;;;;5055046;28;20352;-65
2020/12/31 11:02:18;;;;;;;11.43;4.63;;;20.60;37.40;;;;;;5064344;28;20071;-58
2020/12/31 11:04:44;;;;;;;6.65;4.80;;;20.80;37.50;;;;;;5068458;28;20425;-58
2020/12/31 11:07:10;;;;;;;12.93;5.00;;;21.00;37.40;;;;;;5065440;28;20029;-58
2020/12/31 11:09:36;;;;;;;14.52;4.65;;;21.40;37.10;;;;;;5062935;28;20043;-58
2020/12/31 11:12:02;;;;;;;7.45;4.22;;;21.90;36.90;;;;;;5066587;28;20025;-57
2020/12/31 12:08:37;;;;;;;11.55;5.75;;;23.00;37.50;;;;;;5085997;28;20492;-61
2020/12/31 12:11:03;;;;;;;9.98;5.82;;;27.30;28.20;;;;;;5070492;28;20017;-62
2020/12/31 12:13:29;;;;;;;9.40;5.38;;;27.30;28.10;;;;;;5064879;28;20067;-62
2020/12/31 12:15:54;;;;;;;10.48;6.35;;;27.50;28.00;;;;;;5064835;28;20452;-59
2020/12/31 12:18:23;;;;;;;10.55;7.28;;;27.60;28.00;;;;;;5065446;28;20025;-63
2020/12/31 12:20:50;;;;;;;11.40;6.95;;;27.70;28.00;;;;;;5066070;28;20016;-63
2020/12/31 12:23:16;;;;;;;10.45;6.28;;;27.80;28.00;;;;;;5066537;28;20100;-64
2020/12/31 12:25:44;;;;;;;9.68;6.25;;;28.10;27.90;;;;;;5062208;28;20029;-63
2020/12/31 12:28:10;;;;;;;9.40;6.47;;;28.50;27.70;;;;;;5054028;28;20418;-62
2020/12/31 12:30:36;;;;;;;10.15;6.78;;;29.10;27.50;;;;;;5058789;28;20424;-62
2020/12/31 12:33:02;;;;;;;10.77;6.00;;;29.60;27.20;;;;;;5055291;28;20017;-61
2020/12/31 12:35:28;;;;;;;8.77;5.38;;;30.20;26.90;;;;;;5059518;28;20490;-63
2020/12/31 12:37:55;;;;;;;10.73;6.50;;;30.80;26.60;;;;;;5049278;28;20028;-64
2020/12/31 12:40:21;;;;;;;9.45;5.93;;;31.30;26.20;;;;;;5056825;28;20375;-63
2020/12/31 12:42:47;;;;;;;10.73;5.80;;;31.90;26.20;;;;;;5054113;28;20090;-63
2020/12/31 12:45:13;;;;;;;9.88;5.70;;;32.40;26.00;;;;;;5046114;28;20395;-62
2020/12/31 12:47:40;;;;;;;9.50;5.25;;;32.80;25.70;;;;;;5059481;28;20029;-62
2020/12/31 12:50:08;;;;;;;11.75;6.47;;;33.30;25.40;;;;;;5053483;28;20037;-62
2020/12/31 12:52:37;;;;;;;12.07;9.10;;;33.70;25.20;;;;;;5059145;28;20032;-62
2020/12/31 12:55:05;;;;;;;16.40;11.80;;;34.10;24.80;;;;;;5045726;28;20021;-65
2020/12/31 12:57:31;;;;;;;12.90;8.93;;;34.50;24.70;;;;;;5043512;28;20074;-67
2020/12/31 12:59:57;;;;;;;12.80;9.75;;;34.90;24.60;;;;;;5047133;28;20446;-68
2020/12/31 13:02:23;;;;;;;18.33;9.00;;;35.20;24.40;;;;;;5051969;28;20044;-67
2020/12/31 13:04:49;;;;;;;15.45;9.45;;;35.40;24.30;;;;;;5054471;28;20413;-65
2020/12/31 13:07:15;;;;;;;15.80;9.40;;;35.80;24.10;;;;;;5054923;28;20049;-67
2020/12/31 13:09:41;;;;;;;12.60;8.75;;;36.10;24.00;;;;;;5051935;28;20445;-68
2020/12/31 13:12:07;;;;;;;11.30;8.15;;;36.30;23.80;;;;;;5052306;28;20032;-66
2020/12/31 13:14:33;;;;;;;9.05;7.60;;;36.50;23.70;;;;;;5056271;28;20120;-67
2020/12/31 13:16:59;;;;;;;10.85;8.90;;;36.80;23.70;;;;;;5051322;28;20686;-66
2020/12/31 13:19:26;;;;;;;12.18;8.10;;;37.00;23.60;;;;;;5053576;28;20466;-66
2020/12/31 13:21:58;;;;;;;9.45;7.53;;;37.20;23.50;;;;;;5049969;28;20104;-67
2020/12/31 13:24:25;;;;;;;9.07;7.43;;;37.30;23.30;;;;;;5034121;28;20084;-66
2020/12/31 13:26:52;;;;;;;9.77;7.78;;;37.50;23.30;;;;;;5048833;28;20028;-66
2020/12/31 13:29:18;;;;;;;9.93;7.10;;;37.70;23.30;;;;;;5054274;28;20029;-67
2020/12/31 13:31:45;;;;;;;10.88;7.78;;;37.80;23.20;;;;;;5056408;28;20028;-66
2020/12/31 13:34:11;;;;;;;11.95;8.55;;;37.90;23.10;;;;;;5052677;28;20028;-65
2020/12/31 13:36:37;;;;;;;11.13;7.05;;;38.10;23.10;;;;;;5047957;28;20331;-66
2020/12/31 13:39:04;;;;;;;8.63;6.85;;;38.10;23.00;;;;;;5053559;28;20112;-68
2020/12/31 13:41:31;;;;;;;7.70;7.00;;;38.20;23.00;;;;;;5050921;28;20017;-67
2020/12/31 13:43:57;;;;;;;8.88;7.03;;;38.30;23.00;;;;;;5049073;28;20296;-67
2020/12/31 13:46:23;;;;;;;8.45;6.57;;;38.40;22.90;;;;;;5049572;28;20031;-69
2020/12/31 13:48:49;;;;;;;7.65;6.63;;;38.50;22.90;;;;;;5049724;28;20025;-68
2020/12/31 13:51:16;;;;;;;7.40;6.60;;;38.50;22.80;;;;;;5049738;28;20079;-62
2020/12/31 13:53:42;;;;;;;8.77;7.05;;;38.60;22.80;;;;;;5052102;28;20027;-63